createdAt,value
2023-02-06T00:00:12.632Z,0.67
2023-02-06T00:01:15.629Z,0.33
2023-02-06T00:02:18.745Z,1.00
2023-02-06T00:03:21.696Z,0.71
2023-02-06T00:04:24.652Z,1.00
2023-02-06T00:05:27.499Z,1.00
2023-02-06T00:06:30.450Z,1.17
2023-02-06T00:07:33.364Z,1.00
2023-02-06T00:08:36.209Z,0.67
2023-02-06T00:09:39.176Z,1.67
2023-02-06T00:10:42.075Z,0.67
2023-02-06T00:11:45.092Z,1.00
2023-02-06T00:12:48.131Z,1.00
2023-02-06T00:13:51.011Z,0.33
2023-02-06T00:14:53.934Z,0.83
2023-02-06T00:15:56.733Z,1.43
2023-02-06T00:16:59.638Z,2.00
2023-02-06T00:18:02.792Z,1.00
2023-02-06T00:19:05.672Z,1.71
2023-02-06T00:20:08.674Z,2.00
2023-02-06T00:21:11.672Z,1.33
2023-02-06T00:22:14.527Z,1.00
2023-02-06T00:23:17.448Z,1.00
2023-02-06T00:24:20.380Z,1.00
2023-02-06T00:25:24.674Z,1.33
2023-02-06T00:26:27.692Z,1.50
2023-02-06T00:27:30.526Z,1.33
2023-02-06T00:28:33.386Z,1.57
2023-02-06T00:29:36.225Z,1.33
2023-02-06T00:30:38.882Z,2.17
2023-02-06T00:31:41.507Z,0.83
2023-02-06T00:32:44.464Z,1.33
2023-02-06T00:33:47.474Z,2.00
2023-02-06T00:34:50.440Z,1.33
2023-02-06T00:35:53.478Z,2.00
2023-02-06T00:36:56.320Z,2.00
2023-02-06T00:37:58.991Z,2.00
2023-02-06T00:39:01.929Z,0.50
2023-02-06T00:40:04.832Z,1.50
2023-02-06T00:41:07.842Z,1.33
2023-02-06T00:42:10.795Z,1.57
2023-02-06T00:43:13.785Z,1.00
2023-02-06T00:44:16.706Z,1.00
2023-02-06T00:45:19.583Z,1.67
2023-02-06T00:46:22.540Z,0.00
2023-02-06T00:47:25.476Z,0.86
2023-02-06T00:48:28.321Z,1.50
2023-02-06T00:49:31.277Z,1.17
2023-02-06T00:50:34.271Z,1.43
2023-02-06T00:51:37.137Z,2.67
2023-02-06T00:52:40.056Z,2.17
2023-02-06T00:53:42.894Z,0.86
2023-02-06T00:54:45.842Z,2.00
2023-02-06T00:55:48.694Z,1.33
2023-02-06T00:56:51.612Z,1.43
2023-02-06T00:57:54.563Z,2.57
2023-02-06T00:58:57.398Z,2.00
2023-02-06T01:00:00.005Z,1.00
2023-02-06T01:01:02.946Z,2.00
2023-02-06T01:02:05.964Z,1.71
2023-02-06T01:03:08.842Z,2.43
2023-02-06T01:04:11.737Z,2.17
2023-02-06T01:05:14.675Z,2.00
2023-02-06T01:06:17.628Z,1.57
2023-02-06T01:07:20.532Z,1.33
2023-02-06T01:08:23.435Z,1.67
2023-02-06T01:09:26.277Z,1.43
2023-02-06T01:10:28.955Z,1.67
2023-02-06T01:11:31.755Z,1.33
2023-02-06T01:12:34.698Z,1.17
2023-02-06T01:13:37.674Z,0.67
2023-02-06T01:14:40.545Z,0.71
2023-02-06T01:15:43.526Z,2.00
2023-02-06T01:16:46.248Z,1.67
2023-02-06T01:17:49.198Z,1.67
2023-02-06T01:18:52.052Z,2.00
2023-02-06T01:19:55.093Z,1.67
2023-02-06T01:20:58.321Z,0.50
2023-02-06T01:22:01.251Z,1.00
2023-02-06T01:23:04.215Z,1.43
2023-02-06T01:24:06.948Z,1.00
2023-02-06T01:25:09.867Z,2.00
2023-02-06T01:26:12.700Z,1.71
2023-02-06T01:27:15.572Z,1.83
2023-02-06T01:28:18.474Z,2.00
2023-02-06T01:29:21.307Z,2.00
2023-02-06T01:30:24.225Z,2.00
2023-02-06T01:31:27.237Z,1.83
2023-02-06T01:32:30.216Z,2.00
2023-02-06T01:33:33.126Z,1.71
2023-02-06T01:34:35.922Z,2.33
2023-02-06T01:35:38.682Z,3.00
2023-02-06T01:36:41.552Z,2.17
2023-02-06T01:37:44.211Z,1.17
2023-02-06T01:38:46.915Z,1.00
2023-02-06T01:39:49.590Z,1.00
2023-02-06T01:40:52.342Z,2.00
2023-02-06T01:41:54.971Z,1.67
2023-02-06T01:42:57.704Z,1.33
2023-02-06T01:44:00.451Z,1.33
2023-02-06T01:45:03.349Z,1.00
2023-02-06T01:46:06.271Z,1.33
2023-02-06T01:47:09.190Z,1.43
2023-02-06T01:48:12.005Z,0.67
2023-02-06T01:49:15.241Z,1.00
2023-02-06T01:50:18.069Z,1.43
2023-02-06T01:51:21.014Z,0.57
2023-02-06T01:52:23.878Z,0.33
2023-02-06T01:53:26.799Z,1.00
2023-02-06T01:54:29.811Z,1.00
2023-02-06T01:55:32.626Z,1.00
2023-02-06T01:56:35.494Z,1.00
2023-02-06T01:57:38.419Z,1.00
2023-02-06T01:58:41.288Z,0.57
2023-02-06T01:59:44.187Z,0.50
2023-02-06T02:00:47.086Z,1.50
2023-02-06T02:01:50.166Z,1.00
2023-02-06T02:02:53.182Z,1.57
2023-02-06T02:03:56.195Z,1.00
2023-02-06T02:04:59.139Z,1.50
2023-02-06T02:06:02.064Z,1.67
2023-02-06T02:07:04.769Z,2.00
2023-02-06T02:08:07.634Z,1.50
2023-02-06T02:09:10.428Z,1.00
2023-02-06T02:10:13.635Z,0.57
2023-02-06T02:11:16.631Z,1.00
2023-02-06T02:12:19.718Z,1.00
2023-02-06T02:13:22.575Z,1.67
2023-02-06T02:14:25.395Z,1.00
2023-02-06T02:15:28.242Z,1.43
2023-02-06T02:16:31.099Z,1.33
2023-02-06T02:17:34.060Z,1.00
2023-02-06T02:18:37.020Z,1.71
2023-02-06T02:19:39.944Z,1.29
2023-02-06T02:20:42.778Z,1.17
2023-02-06T02:21:45.712Z,1.67
2023-02-06T02:22:48.629Z,1.71
2023-02-06T02:23:51.704Z,1.00
2023-02-06T02:24:54.709Z,1.00
2023-02-06T02:25:57.672Z,1.00
2023-02-06T02:27:00.662Z,1.00
2023-02-06T02:28:03.486Z,0.57
2023-02-06T02:29:06.390Z,0.00
2023-02-06T02:30:09.234Z,0.83
2023-02-06T02:31:12.225Z,1.00
2023-02-06T02:32:15.174Z,1.14
2023-02-06T02:33:18.021Z,1.50
2023-02-06T02:34:20.932Z,1.00
2023-02-06T02:35:24.209Z,0.57
2023-02-06T02:36:26.948Z,0.86
2023-02-06T02:37:29.611Z,1.00
2023-02-06T02:38:32.400Z,0.67
2023-02-06T02:39:35.047Z,1.00
2023-02-06T02:40:37.755Z,1.17
2023-02-06T02:41:40.539Z,1.33
2023-02-06T02:42:43.171Z,1.67
2023-02-06T02:43:45.825Z,1.17
2023-02-06T02:44:48.432Z,0.67
2023-02-06T02:45:51.458Z,1.00
2023-02-06T02:46:54.378Z,1.00
2023-02-06T02:47:57.217Z,1.43
2023-02-06T02:49:00.363Z,1.00
2023-02-06T02:50:03.739Z,1.00
2023-02-06T02:51:06.478Z,1.43
2023-02-06T02:52:09.440Z,0.50
2023-02-06T02:53:12.276Z,1.17
2023-02-06T02:54:15.242Z,1.00
2023-02-06T02:55:18.133Z,1.43
2023-02-06T02:56:20.994Z,1.67
2023-02-06T02:57:23.932Z,1.00
2023-02-06T02:58:26.999Z,1.00
2023-02-06T02:59:29.906Z,1.00
2023-02-06T03:00:32.810Z,1.00
2023-02-06T03:01:35.818Z,0.67
2023-02-06T03:02:38.855Z,0.71
2023-02-06T03:03:41.677Z,1.43
2023-02-06T03:04:44.564Z,1.67
2023-02-06T03:05:47.849Z,1.00
2023-02-06T03:06:50.832Z,0.57
2023-02-06T03:07:53.918Z,0.00
2023-02-06T03:08:56.894Z,0.86
2023-02-06T03:09:59.796Z,1.14
2023-02-06T03:11:02.628Z,0.43
2023-02-06T03:12:08.519Z,0.83
2023-02-06T03:13:11.384Z,0.88
2023-02-06T03:14:14.258Z,1.00
2023-02-06T03:15:17.086Z,1.00
2023-02-06T03:16:20.082Z,0.67
2023-02-06T03:17:22.980Z,0.33
2023-02-06T03:18:25.848Z,0.67
2023-02-06T03:19:28.770Z,0.43
2023-02-06T03:20:31.617Z,1.00
2023-02-06T03:21:34.549Z,0.83
2023-02-06T03:22:37.350Z,1.00
2023-02-06T03:23:40.205Z,1.33
2023-02-06T03:24:42.891Z,1.33
2023-02-06T03:25:45.862Z,0.29
2023-02-06T03:26:48.763Z,0.33
2023-02-06T03:27:51.721Z,1.00
2023-02-06T03:28:54.709Z,1.14
2023-02-06T03:29:57.499Z,1.43
2023-02-06T03:31:00.488Z,1.50
2023-02-06T03:32:03.378Z,1.00
2023-02-06T03:33:06.235Z,1.00
2023-02-06T03:34:09.064Z,0.67
2023-02-06T03:35:11.992Z,0.33
2023-02-06T03:36:14.840Z,1.00
2023-02-06T03:37:17.472Z,1.33
2023-02-06T03:38:20.219Z,1.00
2023-02-06T03:39:23.167Z,1.00
2023-02-06T03:40:26.112Z,0.67
2023-02-06T03:41:28.963Z,0.33
2023-02-06T03:42:31.833Z,1.00
2023-02-06T03:43:34.685Z,0.33
2023-02-06T03:44:37.725Z,0.67
2023-02-06T03:45:40.660Z,0.57
2023-02-06T03:46:43.574Z,0.29
2023-02-06T03:47:46.586Z,0.83
2023-02-06T03:48:49.360Z,1.00
2023-02-06T03:49:52.554Z,1.00
2023-02-06T03:50:55.233Z,0.57
2023-02-06T03:51:58.051Z,1.50
2023-02-06T03:53:01.049Z,0.83
2023-02-06T03:54:03.996Z,1.00
2023-02-06T03:55:06.796Z,0.57
2023-02-06T03:56:09.677Z,0.00
2023-02-06T03:57:12.480Z,0.83
2023-02-06T03:58:15.417Z,1.43
2023-02-06T03:59:18.292Z,1.50
2023-02-06T04:00:21.275Z,1.00
2023-02-06T04:01:24.167Z,1.00
2023-02-06T04:02:27.093Z,0.29
2023-02-06T04:03:30.332Z,1.00
2023-02-06T04:04:33.147Z,0.67
2023-02-06T04:05:36.284Z,0.33
2023-02-06T04:06:39.384Z,0.00
2023-02-06T04:07:42.338Z,0.00
2023-02-06T04:08:45.256Z,0.43
2023-02-06T04:09:48.067Z,0.57
2023-02-06T04:10:50.959Z,0.17
2023-02-06T04:11:53.978Z,0.17
2023-02-06T04:12:56.677Z,1.00
2023-02-06T04:13:59.283Z,0.67
2023-02-06T04:15:02.044Z,0.50
2023-02-06T04:16:04.762Z,1.00
2023-02-06T04:17:07.419Z,0.67
2023-02-06T04:18:10.299Z,1.00
2023-02-06T04:19:13.284Z,0.67
2023-02-06T04:20:16.169Z,0.57
2023-02-06T04:21:19.136Z,0.00
2023-02-06T04:22:22.019Z,1.00
2023-02-06T04:23:25.008Z,1.00
2023-02-06T04:24:29.872Z,1.00
2023-02-06T04:25:31.670Z,0.88
2023-02-06T04:26:34.353Z,1.00
2023-02-06T04:27:37.274Z,1.00
2023-02-06T04:28:40.072Z,0.57
2023-02-06T04:29:43.056Z,0.50
2023-02-06T04:30:46.089Z,0.83
2023-02-06T04:31:48.951Z,0.50
2023-02-06T04:32:51.775Z,1.00
2023-02-06T04:33:54.632Z,1.00
2023-02-06T04:34:57.469Z,0.67
2023-02-06T04:36:00.346Z,1.00
2023-02-06T04:37:03.261Z,1.00
2023-02-06T04:38:06.070Z,1.67
2023-02-06T04:39:09.159Z,1.00
2023-02-06T04:40:12.001Z,0.57
2023-02-06T04:41:14.675Z,0.33
2023-02-06T04:42:17.628Z,1.00
2023-02-06T04:43:20.366Z,0.14
2023-02-06T04:44:23.151Z,0.33
2023-02-06T04:45:25.765Z,0.50
2023-02-06T04:46:28.616Z,1.33
2023-02-06T04:47:31.470Z,1.00
2023-02-06T04:48:34.333Z,1.00
2023-02-06T04:49:37.294Z,0.83
2023-02-06T04:50:40.418Z,1.00
2023-02-06T04:51:43.056Z,1.43
2023-02-06T04:52:46.006Z,1.67
2023-02-06T04:53:48.961Z,1.33
2023-02-06T04:54:51.931Z,0.33
2023-02-06T04:55:54.842Z,0.71
2023-02-06T04:56:57.766Z,1.43
2023-02-06T04:58:00.440Z,2.00
2023-02-06T04:59:03.039Z,1.67
2023-02-06T05:00:05.877Z,1.00
2023-02-06T05:01:08.936Z,1.00
2023-02-06T05:02:11.662Z,1.43
2023-02-06T05:03:14.629Z,1.33
2023-02-06T05:04:17.671Z,0.86
2023-02-06T05:05:20.636Z,1.57
2023-02-06T05:06:23.613Z,1.29
2023-02-06T05:07:26.511Z,0.67
2023-02-06T05:08:29.228Z,0.33
2023-02-06T05:09:32.111Z,0.71
2023-02-06T05:10:34.998Z,0.67
2023-02-06T05:11:37.592Z,0.00
2023-02-06T05:12:40.229Z,1.00
2023-02-06T05:13:43.113Z,0.83
2023-02-06T05:14:46.026Z,1.50
2023-02-06T05:15:49.177Z,2.33
2023-02-06T05:16:51.955Z,1.00
2023-02-06T05:17:54.827Z,1.00
2023-02-06T05:18:57.722Z,1.00
2023-02-06T05:20:00.691Z,1.00
2023-02-06T05:21:03.687Z,0.86
2023-02-06T05:22:06.619Z,1.00
2023-02-06T05:23:09.593Z,1.00
2023-02-06T05:24:12.414Z,0.50
2023-02-06T05:25:15.256Z,1.67
2023-02-06T05:26:18.160Z,1.29
2023-02-06T05:27:21.002Z,1.00
2023-02-06T05:28:23.797Z,1.00
2023-02-06T05:29:27.053Z,1.00
2023-02-06T05:30:30.010Z,1.29
2023-02-06T05:31:33.074Z,1.14
2023-02-06T05:32:36.250Z,1.00
2023-02-06T05:33:39.042Z,0.67
2023-02-06T05:34:41.995Z,1.00
2023-02-06T05:35:44.832Z,1.00
2023-02-06T05:36:47.689Z,1.00
2023-02-06T05:37:50.512Z,1.00
2023-02-06T05:38:53.407Z,1.00
2023-02-06T05:39:57.263Z,0.57
2023-02-06T05:41:00.520Z,1.00
2023-02-06T05:42:03.581Z,1.43
2023-02-06T05:43:06.413Z,1.00
2023-02-06T05:44:09.355Z,0.67
2023-02-06T05:45:12.245Z,0.00
2023-02-06T05:46:15.327Z,1.33
2023-02-06T05:47:18.336Z,2.00
2023-02-06T05:48:21.115Z,2.00
2023-02-06T05:49:23.852Z,1.33
2023-02-06T05:50:26.486Z,1.33
2023-02-06T05:51:29.169Z,1.67
2023-02-06T05:52:31.714Z,1.00
2023-02-06T05:53:34.361Z,1.33
2023-02-06T05:54:37.151Z,1.50
2023-02-06T05:55:40.013Z,1.00
2023-02-06T05:56:42.873Z,1.00
2023-02-06T05:57:45.868Z,1.14
2023-02-06T05:58:48.875Z,1.67
2023-02-06T05:59:51.878Z,0.83
2023-02-06T06:00:54.772Z,0.50
2023-02-06T06:01:57.777Z,1.00
2023-02-06T06:03:00.651Z,0.71
2023-02-06T06:04:03.546Z,0.83
2023-02-06T06:05:06.637Z,1.33
2023-02-06T06:06:09.582Z,2.00
2023-02-06T06:07:12.441Z,1.43
2023-02-06T06:08:15.381Z,1.33
2023-02-06T06:09:18.305Z,1.33
2023-02-06T06:10:21.271Z,0.71
2023-02-06T06:11:24.112Z,0.57
2023-02-06T06:12:27.019Z,0.67
2023-02-06T06:13:29.948Z,1.83
2023-02-06T06:14:32.931Z,0.57
2023-02-06T06:15:36.189Z,0.83
2023-02-06T06:16:39.157Z,1.00
2023-02-06T06:17:42.034Z,1.00
2023-02-06T06:18:44.913Z,0.67
2023-02-06T06:19:47.760Z,1.00
2023-02-06T06:20:50.716Z,1.00
2023-02-06T06:21:53.649Z,1.17
2023-02-06T06:22:56.495Z,0.57
2023-02-06T06:23:59.286Z,0.43
2023-02-06T06:25:01.967Z,1.00
2023-02-06T06:26:04.859Z,1.00
2023-02-06T06:27:07.677Z,1.00
2023-02-06T06:28:10.565Z,0.83
2023-02-06T06:29:13.466Z,1.00
2023-02-06T06:30:16.083Z,0.67
2023-02-06T06:31:18.937Z,0.83
2023-02-06T06:32:21.665Z,1.33
2023-02-06T06:33:24.357Z,2.33
2023-02-06T06:34:26.976Z,1.00
2023-02-06T06:35:29.637Z,1.00
2023-02-06T06:36:32.679Z,0.83
2023-02-06T06:37:35.612Z,1.00
2023-02-06T06:38:38.448Z,0.43
2023-02-06T06:39:41.285Z,1.00
2023-02-06T06:40:44.132Z,1.17
2023-02-06T06:41:47.109Z,1.57
2023-02-06T06:42:49.968Z,1.00
2023-02-06T06:43:53.136Z,1.00
2023-02-06T06:44:56.006Z,1.43
2023-02-06T06:45:58.985Z,1.14
2023-02-06T06:47:01.913Z,0.17
2023-02-06T06:48:05.256Z,0.50
2023-02-06T06:49:08.228Z,2.14
2023-02-06T06:50:11.129Z,3.00
2023-02-06T06:51:13.996Z,2.67
2023-02-06T06:52:24.774Z,3.14
2023-02-06T06:53:20.781Z,2.00
2023-02-06T06:54:23.700Z,2.00
2023-02-06T06:55:26.495Z,2.29
2023-02-06T06:56:29.297Z,2.00
2023-02-06T06:57:32.233Z,2.00
2023-02-06T06:58:35.327Z,2.71
2023-02-06T06:59:38.152Z,3.33
2023-02-06T07:00:41.153Z,1.67
2023-02-06T07:01:44.028Z,1.00
2023-02-06T07:02:46.999Z,1.00
2023-02-06T07:03:49.812Z,1.00
2023-02-06T07:04:52.395Z,1.17
2023-02-06T07:05:55.232Z,1.00
2023-02-06T07:06:57.900Z,1.29
2023-02-06T07:08:00.802Z,1.67
2023-02-06T07:09:03.723Z,1.29
2023-02-06T07:10:06.668Z,1.00
2023-02-06T07:11:09.642Z,1.33
2023-02-06T07:12:12.555Z,2.00
2023-02-06T07:13:15.468Z,1.86
2023-02-06T07:14:18.458Z,2.00
2023-02-06T07:15:21.117Z,1.33
2023-02-06T07:16:23.993Z,2.00
2023-02-06T07:17:26.996Z,1.67
2023-02-06T07:18:29.810Z,1.00
2023-02-06T07:19:33.076Z,2.00
2023-02-06T07:20:35.989Z,1.57
2023-02-06T07:21:38.909Z,1.17
2023-02-06T07:22:41.991Z,1.57
2023-02-06T07:23:44.594Z,1.00
2023-02-06T07:24:47.687Z,1.33
2023-02-06T07:25:50.267Z,2.00
2023-02-06T07:26:53.336Z,1.50
2023-02-06T07:27:56.312Z,1.00
2023-02-06T07:28:59.012Z,1.00
2023-02-06T07:30:02.057Z,1.33
2023-02-06T07:31:05.024Z,1.67
2023-02-06T07:32:08.052Z,1.71
2023-02-06T07:33:11.052Z,2.00
2023-02-06T07:34:13.920Z,1.67
2023-02-06T07:35:17.028Z,1.00
2023-02-06T07:36:19.935Z,0.86
2023-02-06T07:37:22.557Z,0.71
2023-02-06T07:38:25.585Z,1.33
2023-02-06T07:39:28.250Z,1.57
2023-02-06T07:40:44.113Z,1.50
2023-02-06T07:41:35.414Z,2.00
2023-02-06T07:42:38.365Z,1.33
2023-02-06T07:43:41.409Z,1.57
2023-02-06T07:44:44.121Z,1.00
2023-02-06T07:45:47.508Z,1.00
2023-02-06T07:46:50.369Z,1.00
2023-02-06T07:47:53.045Z,1.83
2023-02-06T07:48:55.814Z,1.83
2023-02-06T07:49:58.440Z,1.67
2023-02-06T07:51:01.556Z,2.50
2023-02-06T07:52:04.519Z,1.67
2023-02-06T07:53:07.570Z,1.33
2023-02-06T07:54:10.438Z,1.71
2023-02-06T07:55:13.370Z,1.00
2023-02-06T07:56:16.328Z,0.33
2023-02-06T07:57:20.074Z,2.00
2023-02-06T07:58:22.921Z,1.50
2023-02-06T07:59:25.894Z,1.50
2023-02-06T08:00:28.788Z,1.43
2023-02-06T08:01:32.016Z,2.00
2023-02-06T08:02:34.889Z,2.00
2023-02-06T08:03:37.730Z,1.33
2023-02-06T08:04:40.534Z,2.33
2023-02-06T08:05:43.408Z,2.67
2023-02-06T08:06:46.636Z,2.67
2023-02-06T08:07:49.289Z,2.00
2023-02-06T08:08:51.884Z,1.17
2023-02-06T08:09:54.522Z,1.00
2023-02-06T08:10:57.314Z,2.00
2023-02-06T08:12:00.370Z,2.00
2023-02-06T08:13:03.256Z,2.00
2023-02-06T08:14:06.123Z,1.50
2023-02-06T08:15:09.080Z,1.57
2023-02-06T08:16:12.004Z,1.71
2023-02-06T08:17:14.836Z,0.83
2023-02-06T08:18:17.518Z,0.33
2023-02-06T08:19:20.210Z,1.17
2023-02-06T08:20:22.839Z,1.33
2023-02-06T08:21:25.502Z,2.00
2023-02-06T08:22:28.651Z,1.17
2023-02-06T08:23:31.656Z,1.50
2023-02-06T08:24:34.559Z,1.33
2023-02-06T08:25:37.661Z,1.14
2023-02-06T08:26:40.769Z,1.00
2023-02-06T08:27:43.916Z,1.14
2023-02-06T08:28:46.764Z,1.57
2023-02-06T08:29:49.678Z,1.33
2023-02-06T08:30:52.480Z,1.00
2023-02-06T08:31:55.247Z,1.33
2023-02-06T08:32:57.932Z,2.00
2023-02-06T08:34:00.797Z,1.67
2023-02-06T08:35:03.702Z,2.86
2023-02-06T08:36:06.647Z,2.50
2023-02-06T08:37:09.526Z,1.33
2023-02-06T08:38:12.595Z,1.86
2023-02-06T08:39:15.533Z,2.86
2023-02-06T08:40:18.674Z,2.67
2023-02-06T08:41:21.533Z,1.67
2023-02-06T08:42:24.412Z,2.14
2023-02-06T08:43:27.409Z,1.33
2023-02-06T08:44:30.243Z,2.33
2023-02-06T08:45:33.178Z,3.00
2023-02-06T08:46:35.960Z,2.67
2023-02-06T08:47:38.844Z,2.00
2023-02-06T08:48:41.735Z,2.00
2023-02-06T08:49:44.577Z,2.17
2023-02-06T08:50:48.831Z,2.57
2023-02-06T08:51:51.555Z,1.62
2023-02-06T08:52:54.294Z,1.00
2023-02-06T08:53:57.053Z,1.50
2023-02-06T08:54:59.662Z,2.67
2023-02-06T08:56:02.275Z,1.67
2023-02-06T08:57:05.147Z,1.50
2023-02-06T08:58:08.063Z,2.00
2023-02-06T08:59:11.055Z,1.50
2023-02-06T09:00:13.910Z,2.00
2023-02-06T09:01:16.599Z,2.00
2023-02-06T09:02:19.461Z,1.43
2023-02-06T09:03:22.107Z,2.67
2023-02-06T09:04:24.784Z,1.43
2023-02-06T09:05:27.595Z,2.17
2023-02-06T09:06:30.432Z,1.83
2023-02-06T09:07:33.318Z,1.33
2023-02-06T09:08:36.212Z,0.86
2023-02-06T09:09:39.117Z,1.50
2023-02-06T09:10:41.928Z,1.43
2023-02-06T09:11:44.928Z,2.00
2023-02-06T09:12:47.895Z,2.67
2023-02-06T09:13:50.720Z,1.14
2023-02-06T09:14:53.788Z,2.00
2023-02-06T09:15:56.789Z,1.67
2023-02-06T09:16:59.519Z,2.43
2023-02-06T09:18:02.192Z,2.67
2023-02-06T09:19:04.787Z,2.00
2023-02-06T09:20:07.739Z,1.67
2023-02-06T09:21:10.398Z,2.00
2023-02-06T09:22:13.307Z,1.50
2023-02-06T09:23:16.205Z,1.14
2023-02-06T09:24:19.026Z,2.33
2023-02-06T09:25:21.934Z,2.57
2023-02-06T09:26:24.993Z,2.00
2023-02-06T09:27:27.792Z,1.57
2023-02-06T09:28:30.629Z,1.57
2023-02-06T09:29:33.377Z,1.33
2023-02-06T09:30:36.092Z,2.29
2023-02-06T09:31:38.980Z,2.67
2023-02-06T09:32:41.850Z,2.71
2023-02-06T09:33:44.829Z,2.83
2023-02-06T09:34:48.433Z,2.43
2023-02-06T09:35:51.774Z,3.50
2023-02-06T09:36:54.833Z,4.29
2023-02-06T09:37:57.691Z,3.29
2023-02-06T09:39:00.521Z,1.83
2023-02-06T09:40:03.389Z,2.00
2023-02-06T09:41:06.442Z,3.00
2023-02-06T09:42:09.262Z,2.17
2023-02-06T09:43:12.169Z,1.43
2023-02-06T09:44:14.995Z,2.17
2023-02-06T09:45:17.831Z,3.00
2023-02-06T09:46:20.656Z,2.00
2023-02-06T09:47:23.210Z,2.14
2023-02-06T09:48:25.917Z,2.00
2023-02-06T09:49:28.512Z,2.00
2023-02-06T09:50:31.109Z,2.00
2023-02-06T09:51:33.988Z,1.67
2023-02-06T09:52:36.679Z,2.00
2023-02-06T09:53:39.312Z,2.17
2023-02-06T09:54:41.900Z,2.83
2023-02-06T09:55:45.187Z,3.00
2023-02-06T09:56:48.339Z,2.71
2023-02-06T09:57:51.227Z,2.33
2023-02-06T09:58:53.843Z,2.17
2023-02-06T09:59:56.736Z,2.00
2023-02-06T10:00:59.797Z,2.67
2023-02-06T10:02:02.772Z,2.71
2023-02-06T10:03:05.608Z,1.00
2023-02-06T10:04:08.264Z,1.33
2023-02-06T10:05:10.967Z,2.00
2023-02-06T10:06:14.002Z,2.00
2023-02-06T10:07:17.095Z,2.00
2023-02-06T10:08:19.942Z,2.00
2023-02-06T10:09:22.969Z,2.86
2023-02-06T10:10:25.610Z,3.67
2023-02-06T10:11:28.344Z,2.00
2023-02-06T10:12:31.201Z,1.00
2023-02-06T10:13:34.071Z,1.00
2023-02-06T10:14:36.917Z,2.33
2023-02-06T10:15:40.444Z,3.00
2023-02-06T10:16:43.388Z,2.57
2023-02-06T10:17:46.309Z,1.67
2023-02-06T10:18:49.174Z,0.50
2023-02-06T10:19:52.173Z,1.67
2023-02-06T10:20:54.842Z,1.57
2023-02-06T10:21:57.569Z,2.00
2023-02-06T10:23:00.224Z,1.71
2023-02-06T10:24:02.856Z,1.67
2023-02-06T10:25:05.440Z,1.67
2023-02-06T10:26:08.341Z,2.14
2023-02-06T10:27:11.045Z,2.67
2023-02-06T10:28:13.918Z,2.00
2023-02-06T10:29:16.968Z,1.67
2023-02-06T10:30:19.867Z,1.86
2023-02-06T10:31:22.818Z,2.33
2023-02-06T10:32:25.781Z,2.00
2023-02-06T10:33:28.803Z,2.00
2023-02-06T10:34:31.490Z,2.43
2023-02-06T10:35:34.838Z,2.50
2023-02-06T10:36:38.308Z,2.00
2023-02-06T10:37:41.165Z,2.43
2023-02-06T10:38:44.046Z,2.33
2023-02-06T10:39:46.876Z,2.43
2023-02-06T10:40:49.861Z,2.00
2023-02-06T10:41:52.754Z,2.17
2023-02-06T10:42:55.618Z,2.14
2023-02-06T10:43:58.727Z,1.00
2023-02-06T10:45:17.108Z,1.00
2023-02-06T10:46:05.628Z,1.87
2023-02-06T10:47:08.472Z,2.14
2023-02-06T10:48:11.118Z,3.00
2023-02-06T10:49:13.819Z,2.14
2023-02-06T10:50:16.707Z,2.00
2023-02-06T10:51:19.728Z,2.29
2023-02-06T10:52:22.576Z,2.67
2023-02-06T10:53:25.524Z,3.00
2023-02-06T10:54:30.335Z,3.29
2023-02-06T10:55:32.686Z,1.75
2023-02-06T10:56:35.569Z,2.43
2023-02-06T10:57:38.541Z,2.67
2023-02-06T10:58:41.568Z,2.00
2023-02-06T10:59:44.500Z,2.43
2023-02-06T11:00:47.475Z,1.67
2023-02-06T11:01:50.541Z,1.33
2023-02-06T11:03:06.187Z,0.86
2023-02-06T11:03:57.654Z,2.00
2023-02-06T11:05:01.015Z,2.00
2023-02-06T11:06:03.732Z,2.00
2023-02-06T11:07:06.498Z,2.00
2023-02-06T11:08:09.599Z,2.00
2023-02-06T11:09:12.528Z,2.00
2023-02-06T11:10:15.666Z,1.50
2023-02-06T11:11:18.575Z,1.00
2023-02-06T11:12:21.674Z,2.86
2023-02-06T11:13:24.634Z,3.17
2023-02-06T11:14:27.498Z,2.33
2023-02-06T11:15:30.361Z,2.57
2023-02-06T11:16:33.090Z,2.00
2023-02-06T11:17:35.771Z,2.17
2023-02-06T11:18:38.398Z,1.67
2023-02-06T11:19:41.256Z,1.83
2023-02-06T11:20:44.273Z,2.00
2023-02-06T11:21:47.229Z,2.57
2023-02-06T11:22:52.989Z,2.00
2023-02-06T11:23:54.387Z,2.14
2023-02-06T11:24:57.322Z,2.67
2023-02-06T11:26:00.253Z,2.43
2023-02-06T11:27:03.016Z,2.57
2023-02-06T11:28:05.679Z,2.00
2023-02-06T11:29:08.390Z,1.67
2023-02-06T11:30:11.246Z,1.00
2023-02-06T11:31:13.987Z,2.50
2023-02-06T11:32:16.707Z,2.29
2023-02-06T11:33:19.345Z,1.67
2023-02-06T11:34:21.953Z,2.50
2023-02-06T11:35:25.219Z,2.33
2023-02-06T11:36:28.246Z,1.57
2023-02-06T11:37:32.303Z,1.43
2023-02-06T11:38:35.229Z,2.50
2023-02-06T11:39:37.939Z,2.33
2023-02-06T11:40:40.806Z,1.57
2023-02-06T11:41:43.825Z,2.33
2023-02-06T11:42:46.799Z,1.86
2023-02-06T11:43:49.752Z,2.43
2023-02-06T11:44:52.716Z,2.67
2023-02-06T11:45:55.513Z,1.83
2023-02-06T11:46:58.416Z,1.33
2023-02-06T11:48:01.032Z,2.00
2023-02-06T11:49:03.682Z,2.33
2023-02-06T11:50:06.297Z,2.67
2023-02-06T11:51:08.918Z,2.33
2023-02-06T11:52:12.014Z,2.33
2023-02-06T11:53:14.651Z,2.50
2023-02-06T11:54:17.290Z,1.67
2023-02-06T11:55:20.139Z,2.33
2023-02-06T11:56:23.000Z,1.83
2023-02-06T11:57:25.804Z,1.33
2023-02-06T11:58:28.678Z,1.83
2023-02-06T11:59:31.612Z,2.33
2023-02-06T12:00:34.394Z,2.43
2023-02-06T12:01:37.256Z,2.17
2023-02-06T12:02:40.421Z,2.43
2023-02-06T12:03:43.293Z,2.00
2023-02-06T12:04:46.212Z,2.00
2023-02-06T12:05:49.233Z,2.33
2023-02-06T12:06:52.182Z,2.57
2023-02-06T12:07:55.197Z,1.67
2023-02-06T12:08:58.064Z,1.83
2023-02-06T12:10:00.884Z,2.57
2023-02-06T12:11:03.728Z,2.50
2023-02-06T12:12:06.624Z,2.29
2023-02-06T12:13:09.746Z,2.00
2023-02-06T12:14:12.553Z,2.67
2023-02-06T12:15:39.956Z,3.33
2023-02-06T12:16:19.726Z,2.50
2023-02-06T12:17:25.757Z,2.57
2023-02-06T12:18:28.723Z,2.25
2023-02-06T12:19:31.675Z,2.00
2023-02-06T12:20:34.537Z,2.00
2023-02-06T12:21:37.464Z,2.00
2023-02-06T12:22:40.239Z,1.57
2023-02-06T12:23:43.196Z,2.00
2023-02-06T12:24:46.127Z,2.43
2023-02-06T12:25:49.149Z,2.00
2023-02-06T12:26:51.999Z,1.83
2023-02-06T12:27:54.854Z,1.83
2023-02-06T12:28:57.809Z,2.17
2023-02-06T12:30:00.701Z,2.17
2023-02-06T12:31:03.805Z,3.29
2023-02-06T12:32:06.884Z,2.57
2023-02-06T12:33:09.718Z,2.33
2023-02-06T12:34:12.733Z,2.50
2023-02-06T12:35:15.665Z,2.43
2023-02-06T12:36:18.424Z,2.67
2023-02-06T12:37:24.142Z,1.83
2023-02-06T12:38:27.161Z,2.37
2023-02-06T12:39:29.763Z,2.14
2023-02-06T12:40:32.468Z,2.00
2023-02-06T12:41:35.165Z,1.67
2023-02-06T12:42:37.752Z,1.43
2023-02-06T12:43:40.390Z,2.17
2023-02-06T12:44:43.059Z,2.67
2023-02-06T12:45:45.676Z,1.00
2023-02-06T12:46:48.373Z,2.00
2023-02-06T12:47:50.950Z,2.00
2023-02-06T12:48:53.512Z,2.17
2023-02-06T12:49:56.493Z,2.00
2023-02-06T12:50:59.349Z,2.00
2023-02-06T12:52:02.253Z,2.00
2023-02-06T12:53:05.191Z,2.00
2023-02-06T12:54:07.992Z,1.17
2023-02-06T12:55:11.113Z,1.33
2023-02-06T12:56:13.850Z,2.14
2023-02-06T12:57:16.855Z,2.33
2023-02-06T12:58:19.580Z,2.00
2023-02-06T12:59:22.267Z,3.67
2023-02-06T13:00:25.197Z,3.00
2023-02-06T13:01:32.276Z,2.71
2023-02-06T13:02:31.807Z,2.14
2023-02-06T13:03:34.469Z,1.67
2023-02-06T13:04:37.072Z,2.33
2023-02-06T13:05:40.173Z,2.33
2023-02-06T13:06:42.860Z,2.83
2023-02-06T13:07:49.803Z,2.50
2023-02-06T13:08:49.426Z,2.43
2023-02-06T13:09:51.941Z,3.00
2023-02-06T13:10:54.711Z,2.67
2023-02-06T13:11:57.322Z,1.57
2023-02-06T13:13:00.019Z,2.00
2023-02-06T13:14:02.772Z,2.33
2023-02-06T13:15:05.536Z,1.17
2023-02-06T13:16:08.371Z,1.83
2023-02-06T13:17:11.055Z,2.00
2023-02-06T13:18:13.589Z,2.83
2023-02-06T13:19:16.171Z,2.33
2023-02-06T13:20:18.984Z,1.67
2023-02-06T13:21:21.864Z,2.00
2023-02-06T13:22:24.575Z,2.00
2023-02-06T13:23:27.235Z,2.00
2023-02-06T13:24:29.869Z,2.33
2023-02-06T13:25:32.528Z,2.67
2023-02-06T13:26:35.388Z,2.33
2023-02-06T13:27:38.078Z,2.43
2023-02-06T13:28:40.672Z,2.00
2023-02-06T13:29:43.263Z,2.33
2023-02-06T13:30:46.031Z,2.67
2023-02-06T13:31:49.169Z,1.67
2023-02-06T13:32:51.902Z,1.14
2023-02-06T13:33:54.671Z,2.00
2023-02-06T13:34:57.303Z,1.67
2023-02-06T13:35:59.957Z,1.67
2023-02-06T13:37:02.862Z,2.00
2023-02-06T13:38:05.445Z,2.33
2023-02-06T13:39:08.105Z,2.67
2023-02-06T13:40:10.695Z,2.00
2023-02-06T13:41:13.293Z,2.00
2023-02-06T13:42:16.131Z,2.33
2023-02-06T13:43:18.986Z,2.50
2023-02-06T13:44:21.657Z,2.50
2023-02-06T13:45:24.239Z,2.00
2023-02-06T13:46:26.953Z,1.67
2023-02-06T13:47:29.750Z,2.50
2023-02-06T13:48:32.593Z,2.67
2023-02-06T13:49:35.295Z,1.86
2023-02-06T13:50:37.863Z,2.33
2023-02-06T13:51:40.726Z,3.00
2023-02-06T13:52:45.017Z,2.67
2023-02-06T13:53:47.946Z,1.12
2023-02-06T13:54:50.848Z,1.71
2023-02-06T13:55:53.841Z,2.00
2023-02-06T13:56:56.673Z,2.00